Time;durP1;ratioP1;P1;durP2;ratioP2;P2;SDS_P1;SDS_P2;PMS_P1;PMS_P2;Temp;Humidity;BMP_temperature;BMP_pressure;BME280_temperature;BME280_humidity;BME280_pressure;Samples;Min_cycle;Max_cycle;Signal;HPM_P1;HPM_P2
2021/04/22 00:02:16;;;;;;;11.50;1.70;;;;;;;;;;5060942;28;20052;-54
2021/04/22 00:04:42;;;;;;;13.32;1.88;;;;;;;;;;5060190;28;20037;-53
2021/04/22 00:07:08;;;;;;;11.38;2.05;;;;;;;;;;5059641;28;20036;-54
2021/04/22 00:09:35;;;;;;;12.68;2.03;;;;;;;;;;5078507;28;20029;-55
2021/04/22 00:12:01;;;;;;;13.60;1.92;;;;;;;;;;5058951;28;20045;-53
2021/04/22 00:14:27;;;;;;;20.52;2.67;;;;;;;;;;5061145;28;20037;-54
2021/04/22 00:16:53;;;;;;;12.15;1.77;;;;;;;;;;5057107;28;20057;-55
2021/04/22 00:19:19;;;;;;;10.18;2.13;;;;;;;;;;5060972;28;20094;-52
2021/04/22 00:21:45;;;;;;;13.88;2.33;;;;;;;;;;5058522;28;20041;-55
2021/04/22 00:24:11;;;;;;;17.00;2.45;;;;;;;;;;5061300;28;20048;-49
2021/04/22 00:26:38;;;;;;;10.95;2.53;;;;;;;;;;5057829;28;20059;-54
2021/04/22 00:29:07;;;;;;;13.75;2.72;;;;;;;;;;5060690;28;20040;-54
2021/04/22 00:31:33;;;;;;;14.05;3.30;;;;;;;;;;5057636;28;20045;-55
2021/04/22 00:33:59;;;;;;;15.65;2.95;;;;;;;;;;5063493;28;20051;-52
2021/04/22 00:36:25;;;;;;;19.77;2.50;;;;;;;;;;5057146;28;20451;-52
2021/04/22 00:38:51;;;;;;;15.68;2.97;;;;;;;;;;5060481;28;20060;-53
2021/04/22 00:41:17;;;;;;;11.88;3.30;;;;;;;;;;5059948;28;20040;-57
2021/04/22 00:43:44;;;;;;;17.98;3.80;;;;;;;;;;5060890;28;20041;-56
2021/04/22 00:46:10;;;;;;;17.83;3.78;;;;;;;;;;5062140;28;20053;-53
2021/04/22 00:48:36;;;;;;;16.58;3.70;;;;;;;;;;5056242;28;20103;-52
2021/04/22 00:51:02;;;;;;;17.10;3.20;;;;;;;;;;5061051;28;20054;-52
2021/04/22 00:53:29;;;;;;;22.33;3.15;;;;;;;;;;5057691;28;20040;-51
2021/04/22 00:55:56;;;;;;;14.70;3.30;;;;;;;;;;5063157;28;20048;-52
2021/04/22 00:58:22;;;;;;;18.73;3.67;;;;;;;;;;5057512;28;20162;-51
2021/04/22 01:00:53;;;;;;;12.30;4.10;;;;;;;;;;5060164;28;20033;-56
2021/04/22 01:03:19;;;;;;;17.80;3.60;;;;;;;;;;5060143;28;20044;-58
2021/04/22 01:05:46;;;;;;;12.80;3.42;;;;;;;;;;5063649;28;20043;-50
2021/04/22 01:08:12;;;;;;;16.05;3.78;;;;;;;;;;5059811;28;20037;-56
2021/04/22 01:10:38;;;;;;;10.82;2.95;;;;;;;;;;5060801;28;20118;-54
2021/04/22 01:13:05;;;;;;;12.10;2.85;;;;;;;;;;5056830;28;20060;-53
2021/04/22 01:15:31;;;;;;;11.77;3.00;;;;;;;;;;5060760;28;20045;-53
2021/04/22 01:17:59;;;;;;;13.65;2.70;;;;;;;;;;5057581;28;20037;-53
2021/04/22 01:20:25;;;;;;;18.00;2.28;;;;;;;;;;5058832;28;20089;-55
2021/04/22 01:22:53;;;;;;;19.63;2.58;;;;;;;;;;5060522;28;20033;-52
2021/04/22 01:25:20;;;;;;;10.23;2.13;;;;;;;;;;5058309;28;20052;-53
2021/04/22 01:27:46;;;;;;;12.20;1.98;;;;;;;;;;5060200;28;20041;-48
2021/04/22 01:30:14;;;;;;;12.13;2.17;;;;;;;;;;5055917;28;20040;-51
2021/04/22 01:32:40;;;;;;;5.80;1.30;;;;;;;;;;5058817;28;20033;-52
2021/04/22 01:35:07;;;;;;;16.98;2.10;;;;;;;;;;5057561;28;20040;-49
2021/04/22 01:37:33;;;;;;;11.57;2.10;;;;;;;;;;5059072;28;20051;-53
2021/04/22 01:40:00;;;;;;;12.98;1.60;;;;;;;;;;5058093;28;20037;-53
2021/04/22 01:42:28;;;;;;;12.68;1.75;;;;;;;;;;5061300;28;20037;-56
2021/04/22 01:44:54;;;;;;;8.77;2.05;;;;;;;;;;5055625;28;20117;-55
2021/04/22 01:47:20;;;;;;;14.48;2.17;;;;;;;;;;5062557;28;20047;-58
2021/04/22 01:49:46;;;;;;;10.55;2.03;;;;;;;;;;5056497;28;20093;-55
2021/04/22 01:52:12;;;;;;;14.15;2.47;;;;;;;;;;5062274;28;20052;-54
2021/04/22 01:54:38;;;;;;;12.93;2.13;;;;;;;;;;5049386;28;20025;-49
2021/04/22 01:57:05;;;;;;;15.77;2.05;;;;;;;;;;5050700;28;20110;-53
2021/04/22 01:59:31;;;;;;;11.18;1.77;;;;;;;;;;5056427;28;20037;-50
2021/04/22 02:01:57;;;;;;;10.52;1.90;;;;;;;;;;5060979;28;20048;-53
2021/04/22 02:04:23;;;;;;;12.57;1.95;;;;;;;;;;5058867;28;20118;-49
2021/04/22 02:06:49;;;;;;;14.82;2.13;;;;;;;;;;5056279;28;20033;-52
2021/04/22 02:09:15;;;;;;;16.33;2.15;;;;;;;;;;5060290;28;20037;-52
2021/04/22 02:11:41;;;;;;;13.20;2.42;;;;;;;;;;5053125;28;20098;-49
2021/04/22 02:14:08;;;;;;;8.40;1.98;;;;;;;;;;5060992;28;20057;-54
2021/04/22 02:16:34;;;;;;;10.30;1.75;;;;;;;;;;5057967;28;20032;-53
2021/04/22 02:19:01;;;;;;;12.40;1.95;;;;;;;;;;5061257;28;20048;-53
2021/04/22 02:21:26;;;;;;;9.48;1.90;;;;;;;;;;5058133;28;20044;-54
2021/04/22 02:23:53;;;;;;;14.27;1.95;;;;;;;;;;5062959;28;20051;-55
2021/04/22 02:26:20;;;;;;;15.88;2.10;;;;;;;;;;5057894;28;20084;-53
2021/04/22 02:28:46;;;;;;;10.27;2.03;;;;;;;;;;5062318;28;20033;-54
2021/04/22 02:31:13;;;;;;;10.10;1.90;;;;;;;;;;5062503;28;20044;-55
2021/04/22 02:33:39;;;;;;;12.88;1.98;;;;;;;;;;5064490;28;20045;-53
2021/04/22 02:36:05;;;;;;;12.65;1.90;;;;;;;;;;5058810;28;20121;-54
2021/04/22 02:38:31;;;;;;;10.13;1.90;;;;;;;;;;5063104;28;20037;-54
2021/04/22 02:40:57;;;;;;;12.02;2.40;;;;;;;;;;5059892;28;20056;-55
2021/04/22 02:43:23;;;;;;;11.27;1.92;;;;;;;;;;5060640;28;20104;-51
2021/04/22 02:45:51;;;;;;;17.42;2.08;;;;;;;;;;5064830;28;20037;-55
2021/04/22 02:48:18;;;;;;;14.23;1.60;;;;;;;;;;5058369;28;20071;-54
2021/04/22 02:50:46;;;;;;;9.95;1.80;;;;;;;;;;5062273;28;20048;-52
2021/04/22 02:53:12;;;;;;;17.92;2.22;;;;;;;;;;5059074;28;20040;-53
2021/04/22 02:55:38;;;;;;;7.55;2.03;;;;;;;;;;5060769;28;20040;-48
2021/04/22 02:58:04;;;;;;;9.43;1.85;;;;;;;;;;5058288;28;20088;-48
2021/04/22 03:00:30;;;;;;;12.10;2.25;;;;;;;;;;5061405;28;20134;-51
2021/04/22 03:02:56;;;;;;;13.18;2.10;;;;;;;;;;5059662;28;20111;-54
2021/04/22 03:05:23;;;;;;;12.00;1.65;;;;;;;;;;5062231;28;20045;-51
2021/04/22 03:07:51;;;;;;;9.48;1.73;;;;;;;;;;5057872;28;20143;-52
2021/04/22 03:10:18;;;;;;;17.08;2.42;;;;;;;;;;5061158;28;20047;-53
2021/04/22 03:12:44;;;;;;;14.85;2.08;;;;;;;;;;5057896;28;20033;-51
2021/04/22 03:15:11;;;;;;;14.20;2.40;;;;;;;;;;5062095;28;20053;-50
2021/04/22 03:17:37;;;;;;;13.43;2.13;;;;;;;;;;5058141;28;20041;-53
2021/04/22 03:20:04;;;;;;;11.23;2.05;;;;;;;;;;5060865;28;20048;-50
2021/04/22 03:22:32;;;;;;;8.57;1.88;;;;;;;;;;5062109;28;20044;-54
2021/04/22 03:24:58;;;;;;;15.07;2.05;;;;;;;;;;5058803;28;20041;-51
2021/04/22 03:27:24;;;;;;;13.68;2.25;;;;;;;;;;5061916;28;20060;-53
2021/04/22 03:29:50;;;;;;;12.95;2.35;;;;;;;;;;5059733;28;20045;-54
2021/04/22 03:32:16;;;;;;;9.30;2.13;;;;;;;;;;5062328;28;20044;-52
2021/04/22 03:34:42;;;;;;;14.93;3.47;;;;;;;;;;5058215;28;20060;-50
2021/04/22 03:37:08;;;;;;;16.52;2.97;;;;;;;;;;5062660;28;20043;-55
2021/04/22 03:39:35;;;;;;;10.77;2.65;;;;;;;;;;5057829;28;20056;-55
2021/04/22 03:42:01;;;;;;;11.55;2.08;;;;;;;;;;5062289;28;20049;-55
2021/04/22 03:44:27;;;;;;;11.25;2.30;;;;;;;;;;5058927;28;20056;-55
2021/04/22 03:46:53;;;;;;;8.70;2.00;;;;;;;;;;5060589;28;20043;-51
2021/04/22 03:49:19;;;;;;;13.57;2.08;;;;;;;;;;5059081;28;20032;-55
2021/04/22 03:51:45;;;;;;;14.95;1.90;;;;;;;;;;5061920;28;20041;-54
2021/04/22 03:54:11;;;;;;;12.32;1.85;;;;;;;;;;5058992;28;20090;-55
2021/04/22 03:56:38;;;;;;;10.93;1.60;;;;;;;;;;5063312;28;20151;-53
2021/04/22 03:59:04;;;;;;;12.82;1.77;;;;;;;;;;5060876;28;20037;-55
2021/04/22 04:01:30;;;;;;;12.88;1.90;;;;;;;;;;5062982;28;20061;-53
2021/04/22 04:03:56;;;;;;;14.23;1.73;;;;;;;;;;5062545;28;20041;-52
2021/04/22 04:06:22;;;;;;;9.57;1.70;;;;;;;;;;5057843;28;20051;-50
2021/04/22 04:08:49;;;;;;;6.70;1.35;;;;;;;;;;5061448;28;20052;-50
2021/04/22 04:11:15;;;;;;;13.63;1.48;;;;;;;;;;5057891;28;20064;-53
2021/04/22 04:13:42;;;;;;;12.25;1.42;;;;;;;;;;5060943;28;20044;-51
2021/04/22 04:16:08;;;;;;;9.65;1.38;;;;;;;;;;5057822;28;20086;-51
2021/04/22 04:18:34;;;;;;;6.35;1.50;;;;;;;;;;5060454;28;20052;-49
2021/04/22 04:21:00;;;;;;;6.93;1.20;;;;;;;;;;5058766;28;20118;-54
2021/04/22 04:23:26;;;;;;;15.90;1.92;;;;;;;;;;5062302;28;20041;-51
2021/04/22 04:25:52;;;;;;;13.27;1.55;;;;;;;;;;5057868;28;20041;-50
2021/04/22 04:28:18;;;;;;;7.78;1.33;;;;;;;;;;5061622;28;20037;-53
2021/04/22 04:30:48;;;;;;;8.07;1.40;;;;;;;;;;5057388;28;20049;-52
2021/04/22 04:33:14;;;;;;;15.82;1.60;;;;;;;;;;5060913;28;20033;-53
2021/04/22 04:35:40;;;;;;;8.32;1.35;;;;;;;;;;5056491;28;20040;-55
2021/04/22 04:38:06;;;;;;;11.30;1.42;;;;;;;;;;5059306;28;20039;-53
2021/04/22 04:40:32;;;;;;;7.32;1.83;;;;;;;;;;5061339;28;20025;-56
2021/04/22 04:42:58;;;;;;;10.90;1.95;;;;;;;;;;5051020;28;20029;-51
2021/04/22 04:45:25;;;;;;;12.60;2.10;;;;;;;;;;5060613;28;20043;-51
2021/04/22 04:47:52;;;;;;;10.77;2.33;;;;;;;;;;5057311;28;20037;-55
2021/04/22 04:50:18;;;;;;;9.77;2.17;;;;;;;;;;5061102;28;20041;-53
2021/04/22 04:52:44;;;;;;;13.60;1.88;;;;;;;;;;5058274;28;20153;-57
2021/04/22 04:55:11;;;;;;;8.35;2.08;;;;;;;;;;5060914;28;20040;-57
2021/04/22 04:57:37;;;;;;;8.70;2.00;;;;;;;;;;5055704;28;20081;-53
2021/04/22 05:00:04;;;;;;;15.20;2.15;;;;;;;;;;5060693;28;20049;-52
2021/04/22 05:02:30;;;;;;;8.98;2.03;;;;;;;;;;5057372;28;20054;-57
2021/04/22 05:04:57;;;;;;;11.55;2.10;;;;;;;;;;5060953;28;20033;-50
2021/04/22 05:07:23;;;;;;;10.80;2.50;;;;;;;;;;5057210;28;20036;-55
2021/04/22 05:09:49;;;;;;;11.80;2.40;;;;;;;;;;5059990;28;20076;-53
2021/04/22 05:12:15;;;;;;;13.88;2.30;;;;;;;;;;5058194;28;20095;-56
2021/04/22 05:14:41;;;;;;;18.02;2.17;;;;;;;;;;5059658;28;20040;-52
2021/04/22 05:17:07;;;;;;;8.35;1.90;;;;;;;;;;5058597;28;20055;-51
2021/04/22 05:19:33;;;;;;;7.65;2.25;;;;;;;;;;5055570;28;20081;-54
2021/04/22 05:22:00;;;;;;;9.38;2.50;;;;;;;;;;5070933;28;20041;-53
2021/04/22 05:24:26;;;;;;;15.93;2.17;;;;;;;;;;5070799;28;20041;-50
2021/04/22 05:26:52;;;;;;;13.18;2.35;;;;;;;;;;5070166;28;20064;-53
2021/04/22 05:29:18;;;;;;;13.23;2.63;;;;;;;;;;5066052;28;20049;-49
2021/04/22 05:31:46;;;;;;;12.52;2.38;;;;;;;;;;5071319;28;20040;-51
2021/04/22 05:34:17;;;;;;;9.83;2.27;;;;;;;;;;5064867;28;20090;-57
2021/04/22 05:36:49;;;;;;;11.13;2.17;;;;;;;;;;5053082;28;20351;-53
2021/04/22 05:39:18;;;;;;;9.88;2.33;;;;;;;;;;5070461;28;20033;-52
2021/04/22 05:41:44;;;;;;;;;;;;;;;;;;5077328;28;20057;-56
2021/04/22 05:44:10;;;;;;;13.60;2.40;;;;;;;;;;5063734;28;20033;-52
2021/04/22 05:46:36;;;;;;;13.60;2.80;;;;;;;;;;5066354;28;20126;-53
2021/04/22 05:49:04;;;;;;;13.32;3.33;;;;;;;;;;5068725;28;20052;-53
2021/04/22 05:51:30;;;;;;;10.23;2.67;;;;;;;;;;5070453;28;20052;-57
2021/04/22 05:53:57;;;;;;;14.82;2.85;;;;;;;;;;5070645;28;20113;-55
2021/04/22 05:56:25;;;;;;;11.90;2.75;;;;;;;;;;5072396;28;20060;-51
2021/04/22 05:58:55;;;;;;;8.07;2.47;;;;;;;;;;5066324;28;20045;-50
2021/04/22 06:01:21;;;;;;;21.77;4.45;;;;;;;;;;5070730;28;20273;-56
2021/04/22 06:03:47;;;;;;;21.25;3.88;;;;;;;;;;5069614;28;20055;-55
2021/04/22 06:06:13;;;;;;;15.15;4.15;;;;;;;;;;5068822;27;20142;-52
2021/04/22 06:08:39;;;;;;;15.10;4.20;;;;;;;;;;5076784;28;20047;-52
2021/04/22 06:11:05;;;;;;;15.57;2.80;;;;;;;;;;5070054;28;20055;-49
2021/04/22 06:13:33;;;;;;;12.38;3.17;;;;;;;;;;5068612;28;20037;-54
2021/04/22 06:15:59;;;;;;;13.20;2.72;;;;;;;;;;5063211;28;20129;-53
2021/04/22 06:18:25;;;;;;;9.07;2.60;;;;;;;;;;5062457;28;20056;-53
2021/04/22 06:20:52;;;;;;;17.05;3.03;;;;;;;;;;5071287;28;20078;-52
2021/04/22 06:23:18;;;;;;;21.30;2.90;;;;;;;;;;5081127;28;20052;-53
2021/04/22 06:25:43;;;;;;;10.50;2.47;;;;;;;;;;5079321;28;20198;-51
2021/04/22 06:28:12;;;;;;;12.77;2.28;;;;;;;;;;5081684;28;20048;-53
2021/04/22 06:30:39;;;;;;;11.82;2.58;;;;;;;;;;5078948;28;20044;-50
2021/04/22 06:33:05;;;;;;;13.40;2.60;;;;;;;;;;5083524;27;20040;-53
2021/04/22 06:35:31;;;;;;;17.30;2.30;;;;;;;;;;5079062;28;20044;-55
2021/04/22 06:37:57;;;;;;;9.95;2.22;;;;;;;;;;5081480;28;20040;-50
2021/04/22 06:40:24;;;;;;;20.05;2.28;;;;;;;;;;5079487;28;20044;-53
2021/04/22 06:42:50;;;;;;;16.77;2.45;;;;;;;;;;5082727;28;20048;-48
2021/04/22 06:45:17;;;;;;;13.13;2.55;;;;;;;;;;5084503;28;20024;-51
2021/04/22 06:47:51;;;;;;;16.20;2.58;;;;;;;;;;5081867;28;20063;-51
2021/04/22 06:50:18;;;;;;;15.07;2.53;;;;;;;;;;5083210;28;20048;-51
2021/04/22 06:52:44;;;;;;;8.27;2.35;;;;;;;;;;5078926;28;20347;-55
2021/04/22 06:55:12;;;;;;;13.65;2.65;;;;;;;;;;5083309;28;20052;-51
2021/04/22 06:57:38;;;;;;;5.95;1.92;;;;;;;;;;5079261;28;20051;-53
2021/04/22 07:00:06;;;;;;;9.88;2.00;;;;;;;;;;5081956;28;20052;-53
2021/04/22 07:02:34;;;;;;;11.07;2.35;;;;;;;;;;5078319;28;20096;-56
2021/04/22 07:05:01;;;;;;;16.80;2.22;;;;;;;;;;5074883;28;20036;-55
2021/04/22 07:07:27;;;;;;;16.17;2.25;;;;;;;;;;5078335;28;20047;-51
2021/04/22 07:09:53;;;;;;;8.80;2.10;;;;;;;;;;5082478;28;20032;-51
2021/04/22 07:12:19;;;;;;;9.55;2.28;;;;;;;;;;5078816;28;20036;-52
2021/04/22 07:14:45;;;;;;;14.60;1.65;;;;;;;;;;5082162;28;20100;-52
2021/04/22 07:17:11;;;;;;;8.77;2.05;;;;;;;;;;5080201;28;20079;-51
2021/04/22 07:19:38;;;;;;;12.73;2.03;;;;;;;;;;5073755;28;20047;-53
2021/04/22 07:22:05;;;;;;;11.85;1.98;;;;;;;;;;5078252;28;20047;-52
2021/04/22 07:24:31;;;;;;;12.63;2.45;;;;;;;;;;5081745;28;20047;-55
2021/04/22 07:26:57;;;;;;;8.93;2.40;;;;;;;;;;5081302;28;20301;-54
2021/04/22 07:29:25;;;;;;;10.65;1.90;;;;;;;;;;5078516;28;20048;-58
2021/04/22 07:31:51;;;;;;;16.25;2.53;;;;;;;;;;5082095;28;20094;-53
2021/04/22 07:34:17;;;;;;;12.60;2.05;;;;;;;;;;5077017;28;20040;-54
2021/04/22 07:36:43;;;;;;;10.23;2.30;;;;;;;;;;5083268;28;20036;-55
2021/04/22 07:39:11;;;;;;;12.93;2.30;;;;;;;;;;5078651;28;20040;-55
2021/04/22 07:41:37;;;;;;;13.10;2.38;;;;;;;;;;5082922;28;20056;-56
2021/04/22 07:44:03;;;;;;;11.30;1.92;;;;;;;;;;5079523;28;20090;-53
2021/04/22 07:46:29;;;;;;;13.10;2.05;;;;;;;;;;5080172;28;20044;-54
2021/04/22 07:48:55;;;;;;;8.10;1.80;;;;;;;;;;5078356;28;20079;-55
2021/04/22 07:51:21;;;;;;;13.30;1.70;;;;;;;;;;5081223;28;20040;-56
2021/04/22 07:53:47;;;;;;;7.80;1.90;;;;;;;;;;5078972;28;20043;-55
2021/04/22 07:56:14;;;;;;;10.93;2.15;;;;;;;;;;5081920;28;20085;-54
2021/04/22 07:58:41;;;;;;;11.68;2.35;;;;;;;;;;5077544;28;20092;-49
2021/04/22 08:01:07;;;;;;;9.45;1.50;;;;;;;;;;5081070;28;20075;-55
2021/04/22 08:03:33;;;;;;;11.10;1.70;;;;;;;;;;5082107;28;20036;-55
2021/04/22 08:05:59;;;;;;;11.35;2.05;;;;;;;;;;5077420;28;20040;-53
2021/04/22 08:08:29;;;;;;;10.18;1.90;;;;;;;;;;5074609;28;20039;-51
2021/04/22 08:10:55;;;;;;;9.75;1.50;;;;;;;;;;5077577;28;20052;-51
2021/04/22 08:13:22;;;;;;;9.35;1.65;;;;;;;;;;5082077;28;20044;-52
2021/04/22 08:15:50;;;;;;;7.45;1.48;;;;;;;;;;5078258;28;20040;-55
2021/04/22 08:18:17;;;;;;;4.27;1.17;;;;;;;;;;5079336;28;20033;-55
2021/04/22 08:20:43;;;;;;;11.98;1.83;;;;;;;;;;5077955;28;20036;-51
2021/04/22 08:23:09;;;;;;;8.60;1.67;;;;;;;;;;5081226;28;20040;-57
2021/04/22 08:25:37;;;;;;;13.10;2.15;;;;;;;;;;5077378;28;20090;-54
2021/04/22 08:28:05;;;;;;;7.68;1.70;;;;;;;;;;5081184;28;20043;-57
2021/04/22 08:30:33;;;;;;;4.07;1.17;;;;;;;;;;5076581;28;20117;-56
2021/04/22 08:32:59;;;;;;;4.72;1.65;;;;;;;;;;5082455;28;20060;-55
2021/04/22 08:35:28;;;;;;;14.85;1.67;;;;;;;;;;5077442;28;20054;-53
2021/04/22 08:37:54;;;;;;;8.80;1.73;;;;;;;;;;5082241;28;20037;-56
2021/04/22 08:40:21;;;;;;;13.60;1.80;;;;;;;;;;5078176;28;20047;-53
2021/04/22 08:42:47;;;;;;;16.92;2.90;;;;;;;;;;5079238;28;20063;-54
2021/04/22 08:45:14;;;;;;;7.20;1.52;;;;;;;;;;5072325;28;20035;-50
2021/04/22 08:47:42;;;;;;;9.15;1.83;;;;;;;;;;5067275;28;20033;-55
2021/04/22 08:50:09;;;;;;;8.55;1.55;;;;;;;;;;5060696;28;20052;-49
2021/04/22 08:52:37;;;;;;;10.52;1.60;;;;;;;;;;5074562;28;20096;-53
2021/04/22 08:55:04;;;;;;;8.87;1.53;;;;;;;;;;5061752;28;20040;-55
2021/04/22 08:57:30;;;;;;;14.15;1.98;;;;;;;;;;5072942;28;20036;-55
2021/04/22 09:00:02;;;;;;;13.45;1.83;;;;;;;;;;5081167;28;20043;-50
2021/04/22 09:02:27;;;;;;;10.20;1.58;;;;;;;;;;5068394;28;20047;-52
2021/04/22 09:04:55;;;;;;;11.43;1.60;;;;;;;;;;5081054;28;20040;-56
2021/04/22 09:07:21;;;;;;;7.82;1.83;;;;;;;;;;5075987;28;20056;-54
2021/04/22 09:09:47;;;;;;;32.97;2.40;;;;;;;;;;5078402;28;20109;-49
2021/04/22 09:12:14;;;;;;;9.63;1.50;;;;;;;;;;5074402;28;20040;-53
2021/04/22 09:14:50;;;;;;;4.50;1.33;;;;;;;;;;5078854;28;20041;-53
2021/04/22 09:17:17;;;;;;;6.75;1.35;;;;;;;;;;5076307;28;20108;-54
2021/04/22 09:19:43;;;;;;;9.57;1.88;;;;;;;;;;5081042;28;20032;-54
2021/04/22 09:22:12;;;;;;;4.78;1.20;;;;;;;;;;5076514;28;20043;-56
2021/04/22 09:24:38;;;;;;;6.28;1.23;;;;;;;;;;5080032;28;20158;-59
2021/04/22 09:27:11;;;;;;;6.57;1.50;;;;;;;;;;5078757;28;20036;-59
2021/04/22 09:29:39;;;;;;;5.72;1.38;;;;;;;;;;5079100;28;20080;-57
2021/04/22 09:32:07;;;;;;;7.03;1.55;;;;;;;;;;5064030;28;20042;-56
2021/04/22 09:34:33;;;;;;;13.63;2.00;;;;;;;;;;5070808;28;20158;-58
2021/04/22 09:37:02;;;;;;;8.57;1.25;;;;;;;;;;5059121;28;20067;-52
2021/04/22 09:39:30;;;;;;;6.78;1.67;;;;;;;;;;5076584;28;20048;-53
2021/04/22 09:42:00;;;;;;;12.60;1.90;;;;;;;;;;5079434;28;20035;-59
2021/04/22 09:44:27;;;;;;;13.40;2.50;;;;;;;;;;5076584;28;20048;-57
2021/04/22 09:47:10;;;;;;;8.02;1.45;;;;;;;;;;5080256;28;20032;-56
2021/04/22 09:49:47;;;;;;;10.63;1.55;;;;;;;;;;5074836;28;20040;-54
2021/04/22 09:52:17;;;;;;;7.45;1.52;;;;;;;;;;5078903;28;20036;-56
2021/04/22 09:54:46;;;;;;;9.07;1.33;;;;;;;;;;5073138;28;20117;-57
2021/04/22 09:57:20;;;;;;;9.25;1.63;;;;;;;;;;5059491;28;20051;-59
2021/04/22 09:59:46;;;;;;;4.35;1.42;;;;;;;;;;5069425;28;20040;-57
2021/04/22 10:02:12;;;;;;;17.42;1.75;;;;;;;;;;5080021;28;20076;-59
2021/04/22 10:04:39;;;;;;;5.43;1.42;;;;;;;;;;5074287;28;20040;-57
2021/04/22 10:07:16;;;;;;;20.02;2.35;;;;;;;;;;5079481;28;20048;-57
2021/04/22 10:09:42;;;;;;;14.65;2.00;;;;;;;;;;5074605;28;20044;-57
2021/04/22 10:12:10;;;;;;;7.10;1.63;;;;;;;;;;5078796;28;20048;-58
2021/04/22 10:14:37;;;;;;;9.85;1.45;;;;;;;;;;5075737;28;20056;-57
2021/04/22 10:17:12;;;;;;;8.23;1.50;;;;;;;;;;5079426;28;20110;-55
2021/04/22 10:19:38;;;;;;;6.18;1.30;;;;;;;;;;5075024;28;20055;-59
2021/04/22 10:22:05;;;;;;;6.65;1.60;;;;;;;;;;5079934;28;20048;-59
2021/04/22 10:24:31;;;;;;;5.78;1.15;;;;;;;;;;5077303;28;20044;-55
2021/04/22 10:26:58;;;;;;;7.53;1.63;;;;;;;;;;5078936;28;20048;-54
2021/04/22 10:29:26;;;;;;;6.75;1.70;;;;;;;;;;5078699;28;20072;-54
2021/04/22 10:31:52;;;;;;;10.55;2.10;;;;;;;;;;5059826;28;20037;-57
2021/04/22 10:34:18;;;;;;;10.98;1.95;;;;;;;;;;5071274;28;20048;-60
2021/04/22 10:36:44;;;;;;;6.55;1.98;;;;;;;;;;5079459;28;20036;-57
2021/04/22 10:39:12;;;;;;;8.55;1.73;;;;;;;;;;5082023;28;20040;-57
2021/04/22 10:41:39;;;;;;;7.27;1.43;;;;;;;;;;5077999;28;20040;-56
2021/04/22 10:44:05;;;;;;;6.60;1.55;;;;;;;;;;5079742;28;20273;-56
2021/04/22 10:46:36;;;;;;;2.40;1.02;;;;;;;;;;5078475;28;20047;-57
2021/04/22 10:49:04;;;;;;;6.38;1.52;;;;;;;;;;5081090;28;20051;-59
2021/04/22 10:51:30;;;;;;;4.68;1.30;;;;;;;;;;5077479;28;20065;-58
2021/04/22 10:53:56;;;;;;;12.90;1.95;;;;;;;;;;5082200;28;20036;-57
2021/04/22 10:56:26;;;;;;;19.30;1.77;;;;;;;;;;5079509;28;20044;-56
2021/04/22 10:58:52;;;;;;;5.22;1.70;;;;;;;;;;5082522;28;20044;-56
2021/04/22 11:01:18;;;;;;;5.82;1.50;;;;;;;;;;5078456;28;20063;-55
2021/04/22 11:04:02;;;;;;;14.10;1.80;;;;;;;;;;5082028;28;20073;-58
2021/04/22 11:06:33;;;;;;;6.60;1.60;;;;;;;;;;5078154;28;20117;-56
2021/04/22 11:09:10;;;;;;;5.63;1.50;;;;;;;;;;5080136;28;20032;-58
2021/04/22 11:11:36;;;;;;;9.88;2.22;;;;;;;;;;5080029;28;20088;-56
2021/04/22 11:14:04;;;;;;;6.95;1.70;;;;;;;;;;5080552;28;20075;-56
2021/04/22 11:16:33;;;;;;;13.57;1.85;;;;;;;;;;5078972;28;20052;-57
2021/04/22 11:19:00;;;;;;;5.65;1.67;;;;;;;;;;5081793;28;20044;-56
2021/04/22 11:21:28;;;;;;;6.50;1.63;;;;;;;;;;5078159;28;20048;-59
2021/04/22 11:23:56;;;;;;;10.32;1.80;;;;;;;;;;5082593;28;20048;-57
2021/04/22 11:26:26;;;;;;;8.23;1.90;;;;;;;;;;5080217;28;20033;-58
2021/04/22 11:28:53;;;;;;;9.15;1.52;;;;;;;;;;5078608;28;20040;-57
2021/04/22 11:31:20;;;;;;;4.40;1.45;;;;;;;;;;5082913;28;20052;-57
2021/04/22 11:33:46;;;;;;;12.43;2.05;;;;;;;;;;5078041;28;20055;-56
2021/04/22 11:36:17;;;;;;;9.73;1.70;;;;;;;;;;5082264;28;20042;-58
2021/04/22 11:39:07;;;;;;;10.55;1.63;;;;;;;;;;5070100;28;20044;-54
2021/04/22 11:41:34;;;;;;;11.95;1.90;;;;;;;;;;5071478;28;20052;-56
2021/04/22 11:44:02;;;;;;;11.15;2.10;;;;;;;;;;5078527;28;20071;-55
2021/04/22 11:46:39;;;;;;;9.70;1.83;;;;;;;;;;5081462;28;20032;-57
2021/04/22 11:49:06;;;;;;;7.10;1.67;;;;;;;;;;5078369;28;20033;-56
2021/04/22 11:51:35;;;;;;;10.68;2.20;;;;;;;;;;5082597;28;20021;-59
2021/04/22 11:54:01;;;;;;;8.73;2.25;;;;;;;;;;5078794;28;20068;-58
2021/04/22 11:56:27;;;;;;;4.38;1.52;;;;;;;;;;5082772;28;20056;-59
2021/04/22 11:58:53;;;;;;;8.30;1.52;;;;;;;;;;5078037;28;20070;-59
2021/04/22 12:01:20;;;;;;;12.38;1.60;;;;;;;;;;5082208;28;20092;-57
2021/04/22 12:03:46;;;;;;;11.93;1.90;;;;;;;;;;5077007;28;20029;-59
2021/04/22 12:06:14;;;;;;;4.00;1.27;;;;;;;;;;5079797;28;20121;-56
2021/04/22 12:08:42;;;;;;;6.95;1.67;;;;;;;;;;5074907;28;20089;-55
2021/04/22 12:11:09;;;;;;;7.10;1.42;;;;;;;;;;5081202;28;20044;-55
2021/04/22 12:13:35;;;;;;;8.95;1.73;;;;;;;;;;5078295;28;20044;-54
2021/04/22 12:16:05;;;;;;;9.90;1.55;;;;;;;;;;5080001;28;20044;-58
2021/04/22 12:18:33;;;;;;;5.80;1.50;;;;;;;;;;5080431;28;20109;-58
2021/04/22 12:21:06;;;;;;;14.48;2.17;;;;;;;;;;5077433;28;20039;-57
2021/04/22 12:23:36;;;;;;;16.02;1.77;;;;;;;;;;5081626;28;20097;-55
2021/04/22 12:26:12;;;;;;;6.05;1.40;;;;;;;;;;5077643;28;20056;-58
2021/04/22 12:28:42;;;;;;;11.85;1.58;;;;;;;;;;5080646;28;20040;-55
2021/04/22 12:31:08;;;;;;;9.68;1.83;;;;;;;;;;5080014;28;20088;-58
2021/04/22 12:33:34;;;;;;;8.07;1.80;;;;;;;;;;5080516;28;20169;-56
2021/04/22 12:36:00;;;;;;;6.22;1.42;;;;;;;;;;5063248;28;20051;-54
2021/04/22 12:38:30;;;;;;;4.25;1.25;;;;;;;;;;5060011;28;20051;-57
2021/04/22 12:40:58;;;;;;;5.30;1.70;;;;;;;;;;5070038;28;20055;-58
2021/04/22 12:43:26;;;;;;;6.88;1.38;;;;;;;;;;5081366;28;20040;-56
2021/04/22 12:45:52;;;;;;;6.85;1.67;;;;;;;;;;5077567;28;20044;-55
2021/04/22 12:48:18;;;;;;;5.25;1.70;;;;;;;;;;5079726;28;20052;-56
2021/04/22 12:50:46;;;;;;;8.07;1.60;;;;;;;;;;5077524;28;20048;-57
2021/04/22 12:53:13;;;;;;;9.43;1.80;;;;;;;;;;5080413;28;20051;-57
2021/04/22 12:55:42;;;;;;;5.80;1.80;;;;;;;;;;5077195;28;20036;-57
2021/04/22 12:58:10;;;;;;;8.40;1.50;;;;;;;;;;5079489;28;20044;-56
2021/04/22 13:00:38;;;;;;;6.38;1.40;;;;;;;;;;5076027;28;20093;-56
2021/04/22 13:03:08;;;;;;;4.55;1.60;;;;;;;;;;5081932;28;20050;-56
2021/04/22 13:05:38;;;;;;;9.38;1.90;;;;;;;;;;5077238;28;20061;-59
2021/04/22 13:08:05;;;;;;;5.05;1.52;;;;;;;;;;5080806;28;20040;-57
2021/04/22 13:10:32;;;;;;;6.75;1.55;;;;;;;;;;5081552;28;20033;-59
2021/04/22 13:12:58;;;;;;;5.85;1.65;;;;;;;;;;5074976;28;20044;-57
2021/04/22 13:15:24;;;;;;;5.70;1.50;;;;;;;;;;5080699;28;20125;-59
2021/04/22 13:17:51;;;;;;;4.70;1.50;;;;;;;;;;5076283;28;20069;-56
2021/04/22 13:20:22;;;;;;;12.02;1.45;;;;;;;;;;5081816;28;20052;-55
2021/04/22 13:22:49;;;;;;;8.13;1.90;;;;;;;;;;5076656;28;20032;-59
2021/04/22 13:25:16;;;;;;;10.15;1.85;;;;;;;;;;5079183;28;20102;-55
2021/04/22 13:27:42;;;;;;;8.00;1.70;;;;;;;;;;5076592;28;20036;-57
2021/04/22 13:30:09;;;;;;;7.30;2.08;;;;;;;;;;5080071;28;20036;-60
2021/04/22 13:32:37;;;;;;;6.82;1.60;;;;;;;;;;5076903;28;20074;-56
2021/04/22 13:35:07;;;;;;;6.38;1.33;;;;;;;;;;5095103;28;20035;-58
2021/04/22 13:37:37;;;;;;;7.93;1.60;;;;;;;;;;5087159;28;20040;-58
2021/04/22 13:40:09;;;;;;;8.40;2.00;;;;;;;;;;5062320;28;20194;-58
2021/04/22 13:42:35;;;;;;;4.05;1.38;;;;;;;;;;5055611;28;20033;-57
2021/04/22 13:45:08;;;;;;;11.05;2.05;;;;;;;;;;5061260;28;20125;-58
2021/04/22 13:47:34;;;;;;;13.90;1.70;;;;;;;;;;5056490;28;20044;-59
2021/04/22 13:50:00;;;;;;;7.53;1.60;;;;;;;;;;5059715;28;20044;-58
2021/04/22 13:52:27;;;;;;;3.17;1.08;;;;;;;;;;5056907;28;20090;-56
2021/04/22 13:54:54;;;;;;;10.85;1.77;;;;;;;;;;5058988;28;20029;-57
2021/04/22 13:57:21;;;;;;;11.93;1.88;;;;;;;;;;5060116;28;20056;-56
2021/04/22 13:59:49;;;;;;;5.93;1.77;;;;;;;;;;5072132;28;20036;-55
2021/04/22 14:02:16;;;;;;;5.90;1.27;;;;;;;;;;5059319;28;20044;-57
2021/04/22 14:04:44;;;;;;;6.60;1.33;;;;;;;;;;5056847;28;20025;-57
2021/04/22 14:07:10;;;;;;;8.82;1.40;;;;;;;;;;5058389;28;20052;-56
2021/04/22 14:09:37;;;;;;;5.35;1.25;;;;;;;;;;5057381;28;20048;-58
2021/04/22 14:12:04;;;;;;;14.60;1.80;;;;;;;;;;5061388;28;20060;-55
2021/04/22 14:14:31;;;;;;;7.75;1.80;;;;;;;;;;5058946;28;20033;-58
2021/04/22 14:16:57;;;;;;;8.95;1.50;;;;;;;;;;5061524;28;20039;-58
2021/04/22 14:19:26;;;;;;;8.60;1.85;;;;;;;;;;5050926;28;20060;-56
2021/04/22 14:21:53;;;;;;;9.73;1.80;;;;;;;;;;5077289;28;20037;-58
2021/04/22 14:24:19;;;;;;;8.15;1.30;;;;;;;;;;5059705;28;20033;-58
2021/04/22 14:26:48;;;;;;;6.40;1.65;;;;;;;;;;5061083;28;20969;-56
2021/04/22 14:29:14;;;;;;;11.68;1.70;;;;;;;;;;5059355;28;20044;-58
2021/04/22 14:31:41;;;;;;;8.68;1.88;;;;;;;;;;5061919;28;20045;-58
2021/04/22 14:34:06;;;;;;;5.90;1.48;;;;;;;;;;5050747;28;20047;-57
2021/04/22 14:36:32;;;;;;;7.10;1.60;;;;;;;;;;5050189;28;20052;-57